Saint Anthony, Newfoundland and Labrador

3:16 AM AST on December 18, 2014 (GMT -0400)
Dark Tickle | Change Station
CLOSE
Current Station
Personal Weather Station
Location: St. Lunaire-Griquet, NEWFOUNDLAND
Elevation: 35 ft
Nearby Weather Stations

Elev 35 ft 51.52 °N, 55.46 °W | Updated 4 minutes ago

Overcast
Overcast
28.8 °F
Feels Like 19 °F
N
11.0
Wind Variable Wind from SSE
Gusts 16.0 mph

Today
High -- | Low -- °F
--% Chance of Precip.
Yesterday
High -- | Low -- °F
Precip. -- in
7:42 AM 3:34 PM
Waning Crescent, 16% visible
Pressure 30.10 in
Visibility 9.0 miles
Clouds Overcast 1900 ft
Windchill 19 °F
Dew Point 24 °F
Humidity 82%
Rainfall 0.00 in
Snow Depth Not available.
UV 0 out of 12
Pollen Not available.
Air Quality Not available.
Flu Activity Not available.
METAR CYAY 180700Z AUTO 10003KT 9SM OVC019 M02/M04 A3009 RMK SLP192

More Conditions Fewer Conditions

Pressure 30.10 in
Visibility 9.0 miles
Clouds Overcast 1900 ft
Windchill 19 °F
Dew Point 24 °F
Humidity 82%
Rainfall 0.00 in
Snow Depth Not available.
UV 0 out of 12
Pollen Not available.
Air Quality Not available.
Flu Activity Not available.
METAR CYAY 180700Z AUTO 10003KT 9SM OVC019 M02/M04 A3009 RMK SLP192

More Conditions Fewer Conditions

10-Day Weather Forecast

Almanac

Astronomy

Dec. 18, 2014 Rise Set
Actual Time
Civil Twilight
Nautical Twilight
Astronomical Twilight
Moon
Length of Visible Light
Length of Day
Tomorrow will be .
, % of the Moon is Illuminated

Today's Extremes

Country Highs Country Lows

Community

WunderPhotos

Upload Photos

1,778,897 photos uploaded!

WunderBlogs® & News

Nearby

Air Quality

  Air Quality AQ Index Pollutant
Not available.

Snow Depth

Station Depth Elevation

Earthquake Activity

City Distance Mag. Time & Date
Minimum magnitude displayed is 2.5.

Coastal Water Temperatures

Place Temperature

Nearby Weather Stations